Terminal Aerodrome Forecast
Issued by NWS Sterling, VA

Home | Current Version | Previous Version | Text Only | Print | Product List | Glossary On
Versions: 1 2 3 4 5 6 7 8 9 10 11 12 13 14 15 16 17 18 19 20 21 22 23 24 25
697
FTUS41 KLWX 221724
TAFDCA
TAF
KDCA 221724Z 2218/2318 16011KT P6SM FEW040 FEW250
     FM222200 20012KT P6SM BKN050
     FM230000 20011KT P6SM VCTS SCT050CB
     FM230200 21010KT P6SM VCTS SCT025 BKN050CB
     FM230500 23007KT P6SM BKN050
     FM231100 28006KT P6SM BKN050
     FM231400 33007KT P6SM BKN050=

USA.gov is the U.S. government's official web portal to all federal, state and local government web resources and services.